Historyczne dane pomiarowe

Dodano dane terminowe – wersja testowa.

Dane z okresu 1951-2019

Wersja bazy: 1.34 [2019-03-16, lista zmian], aktualizacja planowana na 2019-04-15

Dane meteo z obszaru Polski uzyskane na podstawie danych udostępnionych przez Instytut Meteorologii i Gospodarki Wodnej – Państwowy Instytut Badawczy.

 

Wybierz Datę:    

       

TemperaturaWilgotnośćWiatrCiśnienieOpadyŚniegCzas trwania zjawisk
 Stacja t tx tn tng RH VA  wxwx mslp ppp RRR   cm mm wxwxwxwxwxwxwx
1961-08-14 14.9 18.8 10.0- 72.0- 2.3 0.3---- 0.0------------
1961-08-13 13.6 18.1 12.4- 87.0- 6.3 1.3---- 5.4------------
1961-08-12 18.5 22.1 16.8- 85.3- 7.3 0.7---- 4.2------------
1961-08-11 22.0 29.8 17.4- 80.8- 4.7 1.0---- 0.0------------
1961-08-10 21.7 27.3 17.8- 87.5- 5.3 1.0---- 0.0------------
1961-08-09 22.1 28.5 15.0- 75.3- 3.3 0.3---- 4.1------------
1961-08-08 18.3 21.5 15.4- 76.0- 7.0 0.3---- 0.0------------
1961-08-07 22.3 30.1 17.5- 73.3- 4.3 0.7---- 2.8------------
1961-08-06 24.2 29.8 12.8- 60.8- 2.0 1.7---- 0.0------------
1961-08-05 18.0 23.3 15.0- 76.3- 5.0 1.0---- 0.0------------
1961-08-04 16.6 21.3 9.5- 67.8- 4.7 0.7---- 0.0------------
1961-08-03 17.8 22.5 13.8- 84.8- 7.3 0.7---- 0.6------------
1961-08-02 19.5 25.3 9.0- 61.5- 0.3 0.3---- 0.0------------
1961-08-01 14.7 19.3 12.2- 77.0- 5.0 3.3---- 0.0------------
1961-07-31 14.1 17.8 12.4- 84.3- 7.3 3.7---- 0.3------------
1961-07-30 13.5 14.5 12.4- 97.5- 8.0 1.3---- 14.6------------
1961-07-29 14.3 18.5 13.2- 95.5- 8.0 0.7---- 11.0------------
1961-07-28 20.4 27.8 16.4- 71.3- 6.3 2.3---- 8.0------------
1961-07-27 21.4 27.3 13.0- 57.0- 6.0 2.7---- 0.0------------
1961-07-26 16.8 20.9 12.2- 67.8- 7.3 1.3---- 0.0------------
1961-07-25 14.7 18.8 9.8- 69.3- 6.7 1.3---- 0.0------------
1961-07-24 14.0 18.1 12.5- 78.8- 5.0 1.0---- 0.0------------
1961-07-23 15.0 19.7 11.8- 76.3- 6.3 1.0---- 0.0------------
1961-07-22 15.0 19.3 12.5- 86.0- 5.7 2.7---- 1.9------------
1961-07-21 15.1 21.3 11.8- 83.0- 6.0 1.7---- 2.6------------
1961-07-20 16.3 21.8 7.4- 72.8- 6.0 0.7---- 0.0------------
1961-07-19 14.8 20.5 9.2- 84.3- 5.3 1.0---- 1.1------------
1961-07-18 12.9 17.8 8.4- 87.3- 5.3 1.0---- 0.0------------
1961-07-17 15.1 24.1 9.8- 83.3- 5.7 0.3---- 4.7------------
1961-07-16 15.2 21.1 10.4- 88.3- 5.3 2.7---- 0.9------------
1961-07-15 16.7 23.3 10.2- 72.0- 4.7 0.7---- 0.0------------
1961-07-14 15.3 21.7 12.6- 70.0- 4.7 3.0---- 0.0------------
1961-07-13 22.2 28.3 14.0- 64.5- 6.3 3.7---- 1.6------------
1961-07-12 18.3 25.8 9.0- 77.3- 4.3 1.0---- 2.0------------
1961-07-11 15.4 21.7 8.0- 64.5- 3.3 1.3---- 0.0------------
1961-07-10 14.5 19.8 10.4- 70.0- 4.7 2.7---- 0.0------------
1961-07-09 16.2 23.3 8.4- 71.3- 5.3 1.0---- 0.0------------
1961-07-08 15.7 20.3 9.0- 55.0- 2.3 0.7---- 0.0------------
1961-07-07 12.4 17.3 8.4- 74.8- 2.3 2.3---- 0.0------------
1961-07-06 12.4 16.8 6.9- 79.5- 5.3 1.3---- 0.0------------
1961-07-05 15.1 20.1 13.4- 66.5- 6.0 2.3---- 0.0------------
1961-07-04 21.5 28.3 17.0- 72.0- 5.3 1.3---- 6.4------------
1961-07-03 24.0 30.3 13.6- 53.5- 0.3 0.0---- 0.0------------
1961-07-02 20.9 27.9 10.8- 59.8- 0.0 0.3---- 0.0------------
1961-07-01 19.6 25.3 11.0- 68.0- 1.7 0.7---- 0.0------------
1961-06-30 17.9 23.8 9.8- 71.0- 0.3 0.7---- 0.0------------
1961-06-29 15.0 19.3 9.0- 73.3- 7.0 1.7---- 0.0------------
1961-06-28 14.6 23.3 12.6- 81.0- 5.3 1.3---- 9.8------------
1961-06-27 23.9 30.8 15.8- 62.3- 3.7 1.7---- 4.6------------
1961-06-26 21.1 29.3 14.8- 71.8- 5.3 0.3---- 3.9------------
1961-06-25 21.5 27.8 12.2- 59.0- 2.3 1.3---- 0.0------------
1961-06-24 17.8 23.3 11.0- 62.8- 4.0 2.3---- 0.0------------
1961-06-23 17.7 22.3 14.0- 74.3- 7.0 1.7---- 6.0------------
1961-06-22 16.0 20.9 9.4- 61.8- 2.0 1.0---- 0.0------------
1961-06-21 17.0 22.3 7.3- 56.8- 3.7 1.0---- 0.0------------
1961-06-20 14.4 19.5 7.5- 61.5- 1.3 1.0---- 0.0------------
1961-06-19 17.6 21.3 14.8- 84.8- 6.0 1.3---- 0.8------------
1961-06-18 19.3 24.8 11.0- 63.0- 5.3 1.0---- 0.0------------
1961-06-17 15.9 21.3 8.0- 67.5- 4.0 0.7---- 0.0------------
1961-06-16 13.0 17.5 9.5- 82.3- 7.0 1.0---- 0.0------------
305.6 ms

 

Źródłem pochodzenia danych jest Instytut Meteorologii i Gospodarki Wodnej – Państwowy Instytut Badawczy. Dane Instytutu Meteorologii i Gospodarki Wodnej – Państwowego Instytutu Badawczego zostały przetworzone.

Dane źródłowe można odnaleźć na stronie https://dane.imgw.pl